createdAt,value
2018-04-15T00:00:03.549Z,87.52
2018-04-15T00:01:03.478Z,87.23
2018-04-15T00:02:03.403Z,87.61
2018-04-15T00:03:03.328Z,87.23
2018-04-15T00:04:03.249Z,87.13
2018-04-15T00:05:03.184Z,85.76
2018-04-15T00:06:03.092Z,84.33
2018-04-15T00:07:03.025Z,82.81
2018-04-15T00:08:02.942Z,82.91
2018-04-15T00:09:02.867Z,83.76
2018-04-15T00:10:02.785Z,84.14
2018-04-15T00:11:02.720Z,85.86
2018-04-15T00:12:02.633Z,86.52
2018-04-15T00:13:02.564Z,87.19
2018-04-15T00:14:02.483Z,87.95
2018-04-15T00:15:02.410Z,88.90
2018-04-15T00:16:02.327Z,87.85
2018-04-15T00:17:02.253Z,86.80
2018-04-15T00:18:02.179Z,87.09
2018-04-15T00:19:02.106Z,87.38
2018-04-15T00:20:02.024Z,88.33
2018-04-15T00:21:01.959Z,87.95
2018-04-15T00:22:01.869Z,88.71
2018-04-15T00:23:01.806Z,88.71
2018-04-15T00:24:01.723Z,88.71
2018-04-15T00:25:01.650Z,88.23
2018-04-15T00:26:01.568Z,88.23
2018-04-15T00:27:01.494Z,88.13
2018-04-15T00:28:01.410Z,88.42
2018-04-15T00:29:01.341Z,88.52
2018-04-15T00:30:01.259Z,88.52
2018-04-15T00:31:01.190Z,88.71
2018-04-15T00:32:01.110Z,89.09
2018-04-15T00:33:01.038Z,89.04
2018-04-15T00:34:00.954Z,89.14
2018-04-15T00:35:00.882Z,89.09
2018-04-15T00:36:00.801Z,88.76
2018-04-15T00:37:00.729Z,88.76
2018-04-15T00:38:00.644Z,89.04
2018-04-15T00:39:00.579Z,89.14
2018-04-15T00:40:00.492Z,89.47
2018-04-15T00:41:00.422Z,89.47
2018-04-15T00:42:00.338Z,89.28
2018-04-15T00:43:00.269Z,89.28
2018-04-15T00:44:00.186Z,89.09
2018-04-15T00:45:00.115Z,89.42
2018-04-15T00:46:00.032Z,89.56
2018-04-15T00:46:59.961Z,89.66
2018-04-15T00:47:59.877Z,89.66
2018-04-15T00:48:59.808Z,89.56
2018-04-15T00:49:59.728Z,89.37
2018-04-15T00:50:59.650Z,89.18
2018-04-15T00:51:59.568Z,89.47
2018-04-15T00:52:59.504Z,89.56
2018-04-15T00:53:59.414Z,89.09
2018-04-15T00:54:59.346Z,89.47
2018-04-15T00:55:59.264Z,89.00
2018-04-15T00:56:59.197Z,89.47
2018-04-15T00:57:59.109Z,89.09
2018-04-15T00:58:59.040Z,89.56
2018-04-15T00:59:58.953Z,89.66
2018-04-15T01:00:58.892Z,89.37
2018-04-15T01:01:58.803Z,89.56
2018-04-15T01:02:58.733Z,89.28
2018-04-15T01:03:58.656Z,89.94
2018-04-15T01:04:58.579Z,89.37
2018-04-15T01:05:58.501Z,89.94
2018-04-15T01:06:58.426Z,89.94
2018-04-15T01:07:58.339Z,89.85
2018-04-15T01:08:58.276Z,89.28
2018-04-15T01:09:58.195Z,87.38
2018-04-15T01:10:58.121Z,88.52
2018-04-15T01:11:58.037Z,88.61
2018-04-15T01:12:57.967Z,89.09
2018-04-15T01:13:57.885Z,89.00
2018-04-15T01:14:57.813Z,89.18
2018-04-15T01:15:57.726Z,89.71
2018-04-15T01:16:57.660Z,88.95
2018-04-15T01:17:57.576Z,88.57
2018-04-15T01:18:57.506Z,85.91
2018-04-15T01:19:57.420Z,84.10
2018-04-15T01:20:57.358Z,84.67
2018-04-15T01:21:57.270Z,85.53
2018-04-15T01:22:57.200Z,87.01
2018-04-15T01:23:57.124Z,88.43
2018-04-15T01:24:57.043Z,89.19
2018-04-15T01:25:56.961Z,89.86
2018-04-15T01:26:56.890Z,91.09
2018-04-15T01:27:56.812Z,92.32
2018-04-15T01:28:56.735Z,91.94
2018-04-15T01:29:56.652Z,92.61
2018-04-15T01:30:56.584Z,92.13
2018-04-15T01:31:56.500Z,92.23
2018-04-15T01:32:56.432Z,92.23
2018-04-15T01:33:56.347Z,92.32
2018-04-15T01:34:56.269Z,92.80
2018-04-15T01:35:56.201Z,92.56
2018-04-15T01:36:56.114Z,92.85
2018-04-15T01:37:56.045Z,92.46
2018-04-15T01:38:55.959Z,92.18
2018-04-15T01:39:55.886Z,93.04
2018-04-15T01:40:55.806Z,91.99
2018-04-15T01:41:55.731Z,92.08
2018-04-15T01:42:55.651Z,92.08
2018-04-15T01:43:55.586Z,91.23
2018-04-15T01:44:55.499Z,88.76
2018-04-15T01:45:55.428Z,86.19
2018-04-15T01:46:55.341Z,84.25
2018-04-15T01:47:55.273Z,83.97
2018-04-15T01:48:55.188Z,85.39
2018-04-15T01:49:55.121Z,86.24
2018-04-15T01:50:55.035Z,87.86
2018-04-15T01:51:54.968Z,88.34
2018-04-15T01:52:54.892Z,89.09
2018-04-15T01:53:54.809Z,90.33
2018-04-15T01:54:54.724Z,90.33
2018-04-15T01:55:54.657Z,91.19
2018-04-15T01:56:54.581Z,90.42
2018-04-15T01:57:54.501Z,89.76
2018-04-15T01:58:54.420Z,88.43
2018-04-15T01:59:54.349Z,88.53
2018-04-15T02:00:54.263Z,89.47
2018-04-15T02:01:54.201Z,90.80
2018-04-15T02:02:54.113Z,91.19
2018-04-15T02:03:54.040Z,91.56
2018-04-15T02:04:53.952Z,91.66
2018-04-15T02:05:53.885Z,90.52
2018-04-15T02:06:53.800Z,89.95
2018-04-15T02:07:53.731Z,90.52
2018-04-15T02:08:53.645Z,91.38
2018-04-15T02:09:53.583Z,91.09
2018-04-15T02:10:53.494Z,91.19
2018-04-15T02:11:53.427Z,91.56
2018-04-15T02:12:53.337Z,91.47
2018-04-15T02:13:53.272Z,91.56
2018-04-15T02:14:53.185Z,91.66
2018-04-15T02:15:53.109Z,91.66
2018-04-15T02:16:53.031Z,91.28
2018-04-15T02:17:52.960Z,89.86
2018-04-15T02:18:52.876Z,89.95
2018-04-15T02:19:52.805Z,90.52
2018-04-15T02:20:52.724Z,91.28
2018-04-15T02:21:52.654Z,90.71
2018-04-15T02:22:52.564Z,90.52
2018-04-15T02:23:52.495Z,90.61
2018-04-15T02:24:52.412Z,90.71
2018-04-15T02:25:52.347Z,91.28
2018-04-15T02:26:52.263Z,91.09
2018-04-15T02:27:52.188Z,91.38
2018-04-15T02:28:52.102Z,91.56
2018-04-15T02:29:52.037Z,89.86
2018-04-15T02:30:51.947Z,89.33
2018-04-15T02:31:52.876Z,89.05
2018-04-15T02:32:51.793Z,89.33
2018-04-15T02:33:51.726Z,89.72
2018-04-15T02:34:51.640Z,90.57
2018-04-15T02:35:51.570Z,91.52
2018-04-15T02:36:51.483Z,92.28
2018-04-15T02:37:51.426Z,92.28
2018-04-15T02:38:51.331Z,91.89
2018-04-15T02:39:51.259Z,92.85
2018-04-15T02:40:51.178Z,92.94
2018-04-15T02:41:51.109Z,93.51
2018-04-15T02:42:51.019Z,93.51
2018-04-15T02:43:50.960Z,93.89
2018-04-15T02:44:50.867Z,93.80
2018-04-15T02:45:50.796Z,93.70
2018-04-15T02:46:50.708Z,93.70
2018-04-15T02:47:50.652Z,93.94
2018-04-15T02:48:50.553Z,93.80
2018-04-15T02:49:50.488Z,93.89
2018-04-15T02:50:50.405Z,94.51
2018-04-15T02:51:50.332Z,93.84
2018-04-15T02:52:50.245Z,93.56
2018-04-15T02:53:51.183Z,92.99
2018-04-15T02:54:50.093Z,90.28
2018-04-15T02:55:50.021Z,89.09
2018-04-15T02:56:49.935Z,89.33
2018-04-15T02:57:49.866Z,90.47
2018-04-15T02:58:49.783Z,92.18
2018-04-15T02:59:49.708Z,92.37
2018-04-15T03:00:49.623Z,92.56
2018-04-15T03:01:49.555Z,92.66
2018-04-15T03:02:49.472Z,92.75
2018-04-15T03:03:49.400Z,92.66
2018-04-15T03:04:49.313Z,93.23
2018-04-15T03:05:49.244Z,93.70
2018-04-15T03:06:49.161Z,93.51
2018-04-15T03:07:49.089Z,93.51
2018-04-15T03:08:49.005Z,94.27
2018-04-15T03:09:48.940Z,94.65
2018-04-15T03:10:48.852Z,94.56
2018-04-15T03:11:48.780Z,95.12
2018-04-15T03:12:48.691Z,94.93
2018-04-15T03:13:48.616Z,94.65
2018-04-15T03:14:48.602Z,95.70
2018-04-15T03:15:48.500Z,95.60
2018-04-15T03:16:48.388Z,95.70
2018-04-15T03:17:48.313Z,95.22
2018-04-15T03:18:48.322Z,95.70
2018-04-15T03:19:48.148Z,94.46
2018-04-15T03:20:48.073Z,93.70
2018-04-15T03:21:47.996Z,92.56
2018-04-15T03:22:47.940Z,91.04
2018-04-15T03:23:47.838Z,90.19
2018-04-15T03:24:47.770Z,91.14
2018-04-15T03:25:47.685Z,91.52
2018-04-15T03:26:47.658Z,92.18
2018-04-15T03:27:47.531Z,92.56
2018-04-15T03:28:47.468Z,93.04
2018-04-15T03:29:47.371Z,93.60
2018-04-15T03:30:47.378Z,93.51
2018-04-15T03:31:47.218Z,94.37
2018-04-15T03:32:47.187Z,93.99
2018-04-15T03:33:47.064Z,94.27
2018-04-15T03:34:47.094Z,94.08
2018-04-15T03:35:46.909Z,93.80
2018-04-15T03:36:46.838Z,91.33
2018-04-15T03:37:46.752Z,89.62
2018-04-15T03:38:46.678Z,88.86
2018-04-15T03:39:46.592Z,88.20
2018-04-15T03:40:46.525Z,89.90
2018-04-15T03:41:46.444Z,90.95
2018-04-15T03:42:46.435Z,92.47
2018-04-15T03:43:46.280Z,93.04
2018-04-15T03:44:46.237Z,91.99
2018-04-15T03:45:46.128Z,91.99
2018-04-15T03:46:46.150Z,92.28
2018-04-15T03:47:45.973Z,93.51
2018-04-15T03:48:45.958Z,94.27
2018-04-15T03:49:45.821Z,94.93
2018-04-15T03:50:45.742Z,94.46
2018-04-15T03:51:45.660Z,94.46
2018-04-15T03:52:45.598Z,94.56
2018-04-15T03:53:45.502Z,94.37
2018-04-15T03:54:45.433Z,93.99
2018-04-15T03:55:45.348Z,93.70
2018-04-15T03:56:45.280Z,93.37
2018-04-15T03:57:45.194Z,94.56
2018-04-15T03:58:45.204Z,94.98
2018-04-15T03:59:45.042Z,95.17
2018-04-15T04:00:45.013Z,95.31
2018-04-15T04:01:44.881Z,94.79
2018-04-15T04:02:44.817Z,95.65
2018-04-15T04:03:44.728Z,95.46
2018-04-15T04:04:44.660Z,95.03
2018-04-15T04:05:44.574Z,92.90
2018-04-15T04:06:44.498Z,92.04
2018-04-15T04:07:44.418Z,91.94
2018-04-15T04:08:44.346Z,92.23
2018-04-15T04:09:44.259Z,92.90
2018-04-15T04:10:44.191Z,93.27
2018-04-15T04:11:44.103Z,93.75
2018-04-15T04:12:44.035Z,94.03
2018-04-15T04:13:43.943Z,94.51
2018-04-15T04:14:43.975Z,94.98
2018-04-15T04:15:43.789Z,94.79
2018-04-15T04:16:43.788Z,94.89
2018-04-15T04:17:43.634Z,94.70
2018-04-15T04:18:43.595Z,94.98
2018-04-15T04:19:43.479Z,94.46
2018-04-15T04:20:43.408Z,94.46
2018-04-15T04:21:43.324Z,94.70
2018-04-15T04:22:43.250Z,94.51
2018-04-15T04:23:43.171Z,94.84
2018-04-15T04:24:43.096Z,94.42
2018-04-15T04:25:43.022Z,92.61
2018-04-15T04:26:43.029Z,91.56
2018-04-15T04:27:42.857Z,91.09
2018-04-15T04:28:42.840Z,91.28
2018-04-15T04:29:42.701Z,91.66
2018-04-15T04:30:42.651Z,92.23
2018-04-15T04:31:42.544Z,91.75
2018-04-15T04:32:42.480Z,91.28
2018-04-15T04:33:42.384Z,91.28
2018-04-15T04:34:42.368Z,90.81
2018-04-15T04:35:42.237Z,91.75
2018-04-15T04:36:42.177Z,92.14
2018-04-15T04:37:42.075Z,93.46
2018-04-15T04:38:42.089Z,94.23
2018-04-15T04:39:41.918Z,94.98
2018-04-15T04:40:41.850Z,95.46
2018-04-15T04:41:41.763Z,95.17
2018-04-15T04:42:41.704Z,95.84
2018-04-15T04:43:41.606Z,96.03
2018-04-15T04:44:41.535Z,96.50
2018-04-15T04:45:41.452Z,96.22
2018-04-15T04:46:41.378Z,96.22
2018-04-15T04:47:41.293Z,95.55
2018-04-15T04:48:41.223Z,94.89
2018-04-15T04:49:41.140Z,92.99
2018-04-15T04:50:41.072Z,92.23
2018-04-15T04:51:40.982Z,92.71
2018-04-15T04:52:40.911Z,92.52
2018-04-15T04:53:40.825Z,93.08
2018-04-15T04:54:40.754Z,94.51
2018-04-15T04:55:40.668Z,94.70
2018-04-15T04:56:40.596Z,95.55
2018-04-15T04:57:40.513Z,96.41
2018-04-15T04:58:40.463Z,96.41
2018-04-15T04:59:40.355Z,95.93
2018-04-15T05:00:40.389Z,95.74
2018-04-15T05:01:40.200Z,96.59
2018-04-15T05:02:40.195Z,96.69
2018-04-15T05:03:40.117Z,96.88
2018-04-15T05:04:40.006Z,96.97
2018-04-15T05:05:39.887Z,96.78
2018-04-15T05:06:39.914Z,96.78
2018-04-15T05:07:39.735Z,96.31
2018-04-15T05:08:39.724Z,95.65
2018-04-15T05:09:39.583Z,95.46
2018-04-15T05:10:39.532Z,95.36
2018-04-15T05:11:39.416Z,95.46
2018-04-15T05:12:39.352Z,96.12
2018-04-15T05:13:39.261Z,96.22
2018-04-15T05:14:39.251Z,96.31
2018-04-15T05:15:39.114Z,96.31
2018-04-15T05:16:39.094Z,96.97
2018-04-15T05:17:38.950Z,96.59
2018-04-15T05:18:38.970Z,96.97
2018-04-15T05:19:38.793Z,97.07
2018-04-15T05:20:38.782Z,97.45
2018-04-15T05:21:38.639Z,97.07
2018-04-15T05:22:38.593Z,96.78
2018-04-15T05:23:38.480Z,97.45
2018-04-15T05:24:38.507Z,97.17
2018-04-15T05:25:38.326Z,97.55
2018-04-15T05:26:38.305Z,97.74
2018-04-15T05:27:38.173Z,98.02
2018-04-15T05:28:38.119Z,98.40
2018-04-15T05:29:38.018Z,98.40
2018-04-15T05:30:38.023Z,98.49
2018-04-15T05:31:37.854Z,98.02
2018-04-15T05:32:37.831Z,97.83
2018-04-15T05:33:37.696Z,97.83
2018-04-15T05:34:37.644Z,97.83
2018-04-15T05:35:37.542Z,97.92
2018-04-15T05:36:37.469Z,98.16
2018-04-15T05:37:37.393Z,97.88
2018-04-15T05:38:37.360Z,97.69
2018-04-15T05:39:37.243Z,97.97
2018-04-15T05:40:37.158Z,97.78
2018-04-15T05:41:37.074Z,97.69
2018-04-15T05:42:37.000Z,97.97
2018-04-15T05:43:36.919Z,97.97
2018-04-15T05:44:36.847Z,98.45
2018-04-15T05:45:36.761Z,98.54
2018-04-15T05:46:36.804Z,98.54
2018-04-15T05:47:36.616Z,99.21
2018-04-15T05:48:36.607Z,98.73
2018-04-15T05:49:36.452Z,99.58
2018-04-15T05:50:36.415Z,99.58
2018-04-15T05:51:36.293Z,99.99
2018-04-15T05:52:36.219Z,99.77
2018-04-15T05:53:36.140Z,99.77
2018-04-15T05:54:36.137Z,99.30
2018-04-15T05:55:35.981Z,99.49
2018-04-15T05:56:35.912Z,99.77
2018-04-15T05:57:35.827Z,99.99
2018-04-15T05:58:35.757Z,99.99
2018-04-15T05:59:35.690Z,99.99
2018-04-15T06:00:35.601Z,99.99
2018-04-15T06:01:35.527Z,99.64
2018-04-15T06:02:35.441Z,99.73
2018-04-15T06:03:35.362Z,98.97
2018-04-15T06:04:35.288Z,99.07
2018-04-15T06:05:35.200Z,98.59
2018-04-15T06:06:35.131Z,98.50
2018-04-15T06:07:35.044Z,98.40
2018-04-15T06:08:34.976Z,98.59
2018-04-15T06:09:34.893Z,98.02
2018-04-15T06:10:34.909Z,98.21
2018-04-15T06:11:34.734Z,98.02
2018-04-15T06:12:34.657Z,97.92
2018-04-15T06:13:34.688Z,97.92
2018-04-15T06:14:34.501Z,98.12
2018-04-15T06:15:34.496Z,97.83
2018-04-15T06:16:34.352Z,97.83
2018-04-15T06:17:34.418Z,97.83
2018-04-15T06:18:34.190Z,98.59
2018-04-15T06:19:34.217Z,97.83
2018-04-15T06:20:34.034Z,97.92
2018-04-15T06:21:34.130Z,98.02
2018-04-15T06:22:33.875Z,98.02
2018-04-15T06:23:33.936Z,98.79
2018-04-15T06:24:33.762Z,99.26
2018-04-15T06:25:33.745Z,99.11
2018-04-15T06:26:33.570Z,99.40
2018-04-15T06:27:33.654Z,99.21
2018-04-15T06:28:33.413Z,99.59
2018-04-15T06:29:33.359Z,99.11
2018-04-15T06:30:33.369Z,99.50
2018-04-15T06:31:33.180Z,98.83
2018-04-15T06:32:33.181Z,99.30
2018-04-15T06:33:33.024Z,98.55
2018-04-15T06:34:32.959Z,98.93
2018-04-15T06:35:33.002Z,99.40
2018-04-15T06:36:32.795Z,99.69
2018-04-15T06:37:33.600Z,99.36
2018-04-15T06:38:32.637Z,99.07
2018-04-15T06:39:32.718Z,98.88
2018-04-15T06:40:32.484Z,98.60
2018-04-15T06:41:32.450Z,98.79
2018-04-15T06:42:32.327Z,98.69
2018-04-15T06:43:32.359Z,98.69
2018-04-15T06:44:32.174Z,99.26
2018-04-15T06:45:32.168Z,98.50
2018-04-15T06:46:32.023Z,98.31
2018-04-15T06:47:31.980Z,97.74
2018-04-15T06:48:31.863Z,97.36
2018-04-15T06:49:31.887Z,96.98
2018-04-15T06:50:31.714Z,97.64
2018-04-15T06:51:31.697Z,98.17
2018-04-15T06:52:31.556Z,98.55
2018-04-15T06:53:31.504Z,98.50
2018-04-15T06:54:31.404Z,99.22
2018-04-15T06:55:31.414Z,98.55
2018-04-15T06:56:31.249Z,98.36
2018-04-15T06:57:31.224Z,98.65
2018-04-15T06:58:31.094Z,98.17
2018-04-15T06:59:31.036Z,98.27
2018-04-15T07:00:30.942Z,98.08
2018-04-15T07:01:30.948Z,97.88
2018-04-15T07:02:30.783Z,98.08
2018-04-15T07:03:30.753Z,97.36
2018-04-15T07:04:30.631Z,97.27
2018-04-15T07:05:30.660Z,96.31
2018-04-15T07:06:30.473Z,96.31
2018-04-15T07:07:30.470Z,96.03
2018-04-15T07:08:30.324Z,96.51
2018-04-15T07:09:30.304Z,96.31
2018-04-15T07:10:30.169Z,96.31
2018-04-15T07:11:30.191Z,96.31
2018-04-15T07:12:30.018Z,96.31
2018-04-15T07:13:29.998Z,96.70
2018-04-15T07:14:29.860Z,95.75
2018-04-15T07:15:29.823Z,95.65
2018-04-15T07:16:29.717Z,95.65
2018-04-15T07:17:29.721Z,95.56
2018-04-15T07:18:29.557Z,94.98
2018-04-15T07:19:29.530Z,94.70
2018-04-15T07:20:29.405Z,95.46
2018-04-15T07:21:29.437Z,95.41
2018-04-15T07:22:29.248Z,95.51
2018-04-15T07:23:29.245Z,95.60
2018-04-15T07:24:29.102Z,95.12
2018-04-15T07:25:29.053Z,95.12
2018-04-15T07:26:28.945Z,95.51
2018-04-15T07:27:28.963Z,95.51
2018-04-15T07:28:28.807Z,93.89
2018-04-15T07:29:28.774Z,93.70
2018-04-15T07:30:28.675Z,93.60
2018-04-15T07:31:28.585Z,93.41
2018-04-15T07:32:28.484Z,92.50
2018-04-15T07:33:28.495Z,91.84
2018-04-15T07:34:28.333Z,91.08
2018-04-15T07:35:28.300Z,90.41
2018-04-15T07:36:28.231Z,90.60
2018-04-15T07:37:28.209Z,90.50
2018-04-15T07:38:28.029Z,89.84
2018-04-15T07:39:28.022Z,89.07
2018-04-15T07:40:27.880Z,89.22
2018-04-15T07:41:27.831Z,89.22
2018-04-15T07:42:27.726Z,88.45
2018-04-15T07:43:27.739Z,88.55
2018-04-15T07:44:27.573Z,87.60
2018-04-15T07:45:27.551Z,87.02
2018-04-15T07:46:27.421Z,87.12
2018-04-15T07:47:27.459Z,86.93
2018-04-15T07:48:27.275Z,86.49
2018-04-15T07:49:27.266Z,86.30
2018-04-15T07:50:27.131Z,85.64
2018-04-15T07:51:27.081Z,86.40
2018-04-15T07:52:26.967Z,85.73
2018-04-15T07:53:26.989Z,86.30
2018-04-15T07:54:26.816Z,84.88
2018-04-15T07:55:26.793Z,82.59
2018-04-15T07:56:26.668Z,82.40
2018-04-15T07:57:26.710Z,83.92
2018-04-15T07:58:26.516Z,83.44
2018-04-15T07:59:26.517Z,82.68
2018-04-15T08:00:26.363Z,81.48
2018-04-15T08:01:26.325Z,81.35
2018-04-15T08:02:26.214Z,82.53
2018-04-15T08:03:26.235Z,83.01
2018-04-15T08:04:26.069Z,83.48
2018-04-15T08:05:26.047Z,83.48
2018-04-15T08:06:25.914Z,82.53
2018-04-15T08:07:25.957Z,81.96
2018-04-15T08:08:25.762Z,81.48
2018-04-15T08:09:25.783Z,81.52
2018-04-15T08:10:25.612Z,80.66
2018-04-15T08:11:30.287Z,82.09
2018-04-15T08:12:25.471Z,84.10
2018-04-15T08:13:25.484Z,82.38
2018-04-15T08:14:25.312Z,80.66
2018-04-15T08:15:25.294Z,81.24
2018-04-15T08:16:25.157Z,81.81
2018-04-15T08:17:31.760Z,81.37
2018-04-15T08:18:25.019Z,80.13
2018-04-15T08:19:25.011Z,79.56
2018-04-15T08:20:24.864Z,79.36
2018-04-15T08:21:24.819Z,78.79
2018-04-15T08:22:24.714Z,77.17
2018-04-15T08:23:24.730Z,76.31
2018-04-15T08:24:24.565Z,77.55
2018-04-15T08:25:24.540Z,78.22
2018-04-15T08:26:24.415Z,79.85
2018-04-15T08:27:24.451Z,77.94
2018-04-15T08:28:24.266Z,76.92
2018-04-15T08:29:24.262Z,76.35
2018-04-15T08:30:24.119Z,75.87
2018-04-15T08:31:24.060Z,74.63
2018-04-15T08:32:23.969Z,74.91
2018-04-15T08:33:23.978Z,75.49
2018-04-15T08:34:23.822Z,74.91
2018-04-15T08:35:23.780Z,75.59
2018-04-15T08:36:23.671Z,76.25
2018-04-15T08:37:23.702Z,76.64
2018-04-15T08:38:23.524Z,76.64
2018-04-15T08:39:23.506Z,75.68
2018-04-15T08:40:23.380Z,75.59
2018-04-15T08:41:23.419Z,75.30
2018-04-15T08:42:23.229Z,75.68
2018-04-15T08:43:23.231Z,75.96
2018-04-15T08:44:23.077Z,76.73
2018-04-15T08:45:23.035Z,77.78
2018-04-15T08:46:22.934Z,78.55
2018-04-15T08:47:22.947Z,77.59
2018-04-15T08:48:22.784Z,77.78
2018-04-15T08:49:22.754Z,77.50
2018-04-15T08:50:22.634Z,77.50
2018-04-15T08:51:22.667Z,76.73
2018-04-15T08:52:22.491Z,77.11
2018-04-15T08:53:22.471Z,77.01
2018-04-15T08:54:22.345Z,78.26
2018-04-15T08:55:22.396Z,78.07
2018-04-15T08:56:22.197Z,78.55
2018-04-15T08:57:22.200Z,77.97
2018-04-15T08:58:22.049Z,77.97
2018-04-15T08:59:22.003Z,76.82
2018-04-15T09:00:21.903Z,76.82
2018-04-15T09:01:21.913Z,76.77
2018-04-15T09:02:21.754Z,76.45
2018-04-15T09:03:21.725Z,76.77
2018-04-15T09:04:21.602Z,77.06
2018-04-15T09:05:21.626Z,77.15
2018-04-15T09:06:21.463Z,77.53
2018-04-15T09:07:21.439Z,77.15
2018-04-15T09:08:21.315Z,77.82
2018-04-15T09:09:22.272Z,77.53
2018-04-15T09:10:21.164Z,77.15
2018-04-15T09:11:21.158Z,76.96
2018-04-15T09:12:21.034Z,77.34
2018-04-15T09:13:20.967Z,76.39
2018-04-15T09:14:20.870Z,76.48
2018-04-15T09:15:20.877Z,76.10
2018-04-15T09:16:20.724Z,76.10
2018-04-15T09:17:20.713Z,76.96
2018-04-15T09:18:20.576Z,77.34
2018-04-15T09:19:20.596Z,76.67
2018-04-15T09:20:20.431Z,76.20
2018-04-15T09:21:20.403Z,77.06
2018-04-15T09:22:20.282Z,76.77
2018-04-15T09:23:20.384Z,77.53
2018-04-15T09:24:20.136Z,76.67
2018-04-15T09:25:21.153Z,76.10
2018-04-15T09:26:19.991Z,75.52
2018-04-15T09:27:19.952Z,75.52
2018-04-15T09:28:19.842Z,74.95
2018-04-15T09:29:19.768Z,74.85
2018-04-15T09:30:19.696Z,74.09
2018-04-15T09:31:19.622Z,74.57
2018-04-15T09:32:19.660Z,75.24
2018-04-15T09:33:19.478Z,75.76
2018-04-15T09:34:19.468Z,73.17
2018-04-15T09:35:19.328Z,72.12
2018-04-15T09:36:19.276Z,72.50
2018-04-15T09:37:19.184Z,72.69
2018-04-15T09:38:19.191Z,73.17
2018-04-15T09:39:19.035Z,73.65
2018-04-15T09:40:18.974Z,74.04
2018-04-15T09:41:18.893Z,72.69
2018-04-15T09:42:18.826Z,74.41
2018-04-15T09:43:18.743Z,74.41
2018-04-15T09:44:18.678Z,71.26
2018-04-15T09:45:18.598Z,69.35
2018-04-15T09:46:18.574Z,69.09
2018-04-15T09:47:18.452Z,68.96
2018-04-15T09:48:18.387Z,69.76
2018-04-15T09:49:18.306Z,70.01
2018-04-15T09:50:18.242Z,68.20
2018-04-15T09:51:18.160Z,67.08
2018-04-15T09:52:18.095Z,66.76
2018-04-15T09:53:18.012Z,67.47
2018-04-15T09:54:18.949Z,67.56
2018-04-15T09:55:17.869Z,68.10
2018-04-15T09:56:17.804Z,68.33
2018-04-15T09:57:17.722Z,68.68
2018-04-15T09:58:17.655Z,68.87
2018-04-15T09:59:17.577Z,69.73
2018-04-15T10:00:17.514Z,70.59
2018-04-15T10:01:17.433Z,68.68
2018-04-15T10:02:17.366Z,67.18
2018-04-15T10:03:17.287Z,67.24
2018-04-15T10:04:17.217Z,68.04
2018-04-15T10:05:17.142Z,67.56
2018-04-15T10:06:17.076Z,66.80
2018-04-15T10:07:16.998Z,67.37
2018-04-15T10:08:16.929Z,68.80
2018-04-15T10:09:16.850Z,68.80
2018-04-15T10:10:16.788Z,67.37
2018-04-15T10:11:16.706Z,66.13
2018-04-15T10:12:16.640Z,65.74
2018-04-15T10:13:16.562Z,65.84
2018-04-15T10:14:16.499Z,66.41
2018-04-15T10:15:16.424Z,67.94
2018-04-15T10:16:16.352Z,68.04
2018-04-15T10:17:16.268Z,67.94
2018-04-15T10:18:16.204Z,66.70
2018-04-15T10:19:16.122Z,68.04
2018-04-15T10:20:16.057Z,66.51
2018-04-15T10:21:15.978Z,66.61
2018-04-15T10:22:15.914Z,69.86
2018-04-15T10:23:15.837Z,70.05
2018-04-15T10:24:15.775Z,69.19
2018-04-15T10:25:15.688Z,68.04
2018-04-15T10:26:15.622Z,69.00
2018-04-15T10:27:15.544Z,67.98
2018-04-15T10:28:15.479Z,68.36
2018-04-15T10:29:15.401Z,67.60
2018-04-15T10:30:15.334Z,66.25
2018-04-15T10:31:15.258Z,66.16
2018-04-15T10:32:15.187Z,66.35
2018-04-15T10:33:15.110Z,66.74
2018-04-15T10:34:15.044Z,68.74
2018-04-15T10:35:14.969Z,68.65
2018-04-15T10:36:14.904Z,66.35
2018-04-15T10:37:14.818Z,65.11
2018-04-15T10:38:14.754Z,65.30
2018-04-15T10:39:14.676Z,67.69
2018-04-15T10:40:14.618Z,67.98
2018-04-15T10:41:14.531Z,66.38
2018-04-15T10:42:14.471Z,66.77
2018-04-15T10:43:14.395Z,65.42
2018-04-15T10:44:14.322Z,65.62
2018-04-15T10:45:14.247Z,64.56
2018-04-15T10:46:14.183Z,64.76
2018-04-15T10:47:14.095Z,65.91
2018-04-15T10:48:14.035Z,66.48
2018-04-15T10:49:13.955Z,66.38
2018-04-15T10:50:13.889Z,66.38
2018-04-15T10:51:13.809Z,65.71
2018-04-15T10:52:13.751Z,66.77
2018-04-15T10:53:13.666Z,67.15
2018-04-15T10:54:13.607Z,66.58
2018-04-15T10:55:13.532Z,65.71
2018-04-15T10:56:13.468Z,64.85
2018-04-15T10:57:13.380Z,64.37
2018-04-15T10:58:13.321Z,65.33
2018-04-15T10:59:13.236Z,63.42
2018-04-15T11:00:13.176Z,65.52
2018-04-15T11:01:13.097Z,67.44
2018-04-15T11:02:13.030Z,66.19
2018-04-15T11:03:12.950Z,66.00
2018-04-15T11:04:12.889Z,65.23
2018-04-15T11:05:12.807Z,65.42
2018-04-15T11:06:12.741Z,64.47
2018-04-15T11:07:12.663Z,62.93
2018-04-15T11:08:12.598Z,65.14
2018-04-15T11:09:12.519Z,64.76
2018-04-15T11:10:12.453Z,64.56
2018-04-15T11:11:12.382Z,64.79
2018-04-15T11:12:12.313Z,66.22
2018-04-15T11:13:12.237Z,66.32
2018-04-15T11:14:12.190Z,63.83
2018-04-15T11:15:12.088Z,63.83
2018-04-15T11:16:13.025Z,65.36
2018-04-15T11:17:11.946Z,63.73
2018-04-15T11:18:11.887Z,62.39
2018-04-15T11:19:11.804Z,62.59
2018-04-15T11:20:11.745Z,63.35
2018-04-15T11:21:11.662Z,62.10
2018-04-15T11:22:11.599Z,61.94
2018-04-15T11:23:11.518Z,63.76
2018-04-15T11:24:11.453Z,63.09
2018-04-15T11:25:11.381Z,65.78
2018-04-15T11:26:11.313Z,66.64
2018-04-15T11:27:11.232Z,66.49
2018-04-15T11:28:11.173Z,67.16
2018-04-15T11:29:11.091Z,68.21
2018-04-15T11:30:11.033Z,67.25
2018-04-15T11:31:10.950Z,63.64
2018-04-15T11:32:10.892Z,63.54
2018-04-15T11:33:10.810Z,62.96
2018-04-15T11:34:10.745Z,66.42
2018-04-15T11:35:10.668Z,63.06
2018-04-15T11:36:10.615Z,61.46
2018-04-15T11:37:10.526Z,62.23
2018-04-15T11:38:10.463Z,61.36
2018-04-15T11:39:10.390Z,62.55
2018-04-15T11:40:10.326Z,63.02
2018-04-15T11:41:10.246Z,65.53
2018-04-15T11:42:10.180Z,62.74
2018-04-15T11:43:10.103Z,64.37
2018-04-15T11:44:10.041Z,60.14
2018-04-15T11:45:09.989Z,61.68
2018-04-15T11:46:09.902Z,62.38
2018-04-15T11:47:09.823Z,59.22
2018-04-15T11:48:09.759Z,57.75
2018-04-15T11:49:09.682Z,61.14
2018-04-15T11:50:09.628Z,62.68
2018-04-15T11:51:09.542Z,61.71
2018-04-15T11:52:09.482Z,60.85
2018-04-15T11:53:09.404Z,58.64
2018-04-15T11:54:09.341Z,59.89
2018-04-15T11:55:09.262Z,57.97
2018-04-15T11:56:09.206Z,56.71
2018-04-15T11:57:09.128Z,56.81
2018-04-15T11:58:09.060Z,59.79
2018-04-15T11:59:08.983Z,57.87
2018-04-15T12:00:08.924Z,62.29
2018-04-15T12:01:08.846Z,62.68
2018-04-15T12:02:08.793Z,62.96
2018-04-15T12:03:08.709Z,62.10
2018-04-15T12:04:08.650Z,60.46
2018-04-15T12:05:08.569Z,59.99
2018-04-15T12:06:08.510Z,61.33
2018-04-15T12:07:08.430Z,59.31
2018-04-15T12:08:08.368Z,59.53
2018-04-15T12:09:08.293Z,57.03
2018-04-15T12:10:08.271Z,57.51
2018-04-15T12:11:08.157Z,57.99
2018-04-15T12:12:08.095Z,57.10
2018-04-15T12:13:08.016Z,59.02
2018-04-15T12:14:07.957Z,59.12
2018-04-15T12:15:07.878Z,56.91
2018-04-15T12:16:07.819Z,55.24
2018-04-15T12:17:07.742Z,54.86
2018-04-15T12:18:07.681Z,52.65
2018-04-15T12:19:07.609Z,53.61
2018-04-15T12:20:07.544Z,54.99
2018-04-15T12:21:07.468Z,53.54
2018-04-15T12:22:07.402Z,51.72
2018-04-15T12:23:07.328Z,55.08
2018-04-15T12:24:07.268Z,56.91
2018-04-15T12:25:07.192Z,54.57
2018-04-15T12:26:07.133Z,56.59
2018-04-15T12:27:07.057Z,58.51
2018-04-15T12:28:06.993Z,58.80
2018-04-15T12:29:06.917Z,59.09
2018-04-15T12:30:06.859Z,58.83
2018-04-15T12:31:06.777Z,58.06
2018-04-15T12:32:06.712Z,59.99
2018-04-15T12:33:06.644Z,58.73
2018-04-15T12:34:06.581Z,58.99
2018-04-15T12:35:06.505Z,58.83
2018-04-15T12:36:06.452Z,56.71
2018-04-15T12:37:06.368Z,56.71
2018-04-15T12:38:07.310Z,55.66
2018-04-15T12:39:06.227Z,56.71
2018-04-15T12:40:06.167Z,58.25
2018-04-15T12:41:06.092Z,57.00
2018-04-15T12:42:06.031Z,56.71
2018-04-15T12:43:05.954Z,57.48
2018-04-15T12:44:05.892Z,57.32
2018-04-15T12:45:05.819Z,56.93
2018-04-15T12:46:06.759Z,55.30
2018-04-15T12:47:05.679Z,57.99
2018-04-15T12:48:05.618Z,58.79
2018-04-15T12:49:05.552Z,58.22
2018-04-15T12:50:05.484Z,56.96
2018-04-15T12:51:05.403Z,55.62